Terminal Aerodrome Forecast
Issued by NWS

Home | Current Version | Previous Version | Text Only | Print | Product List | Glossary On
Versions: 1 2 3 4 5 6 7 8 9 10 11 12 13 14 15 16 17
000
FTUS41 KPBZ 211700
TAFBVI
TAF
KBVI 211730Z 2118/2218 33006KT P6SM SCT005 BKN025
      TEMPO 2118/2121 5SM -SHRA BKN005
     FM212100 31008KT P6SM VCSH BKN020
     FM220500 32005KT 5SM BR VCSH BKN006
     FM221200 33008KT P6SM BKN015 OVC025
     FM221500 33009KT P6SM BKN025=

USA.gov is the U.S. government's official web portal to all federal, state and local government web resources and services.